sensor_id;sensor_type;location;lat;lon;timestamp;temperature;humidity
23520;DHT22;11936;50.820;4.336;2023-05-29T00:00:02;17.60;99.90
23520;DHT22;11936;50.820;4.336;2023-05-29T00:02:32;17.80;99.90
23520;DHT22;11936;50.820;4.336;2023-05-29T00:04:58;17.80;99.90
23520;DHT22;11936;50.820;4.336;2023-05-29T00:07:23;17.70;99.90
23520;DHT22;11936;50.820;4.336;2023-05-29T00:09:49;17.70;99.90
23520;DHT22;11936;50.820;4.336;2023-05-29T00:12:15;17.50;99.90
23520;DHT22;11936;50.820;4.336;2023-05-29T00:14:40;17.40;99.90
23520;DHT22;11936;50.820;4.336;2023-05-29T00:17:06;17.40;99.90
23520;DHT22;11936;50.820;4.336;2023-05-29T00:19:32;17.30;99.90
23520;DHT22;11936;50.820;4.336;2023-05-29T00:21:57;17.30;99.90
23520;DHT22;11936;50.820;4.336;2023-05-29T00:24:23;17.40;99.90
23520;DHT22;11936;50.820;4.336;2023-05-29T00:26:48;17.60;99.90
23520;DHT22;11936;50.820;4.336;2023-05-29T00:29:14;17.40;99.90
23520;DHT22;11936;50.820;4.336;2023-05-29T00:31:40;17.40;99.90
23520;DHT22;11936;50.820;4.336;2023-05-29T00:34:06;17.30;99.90
23520;DHT22;11936;50.820;4.336;2023-05-29T00:36:32;17.30;99.90
23520;DHT22;11936;50.820;4.336;2023-05-29T00:38:58;17.40;99.90
23520;DHT22;11936;50.820;4.336;2023-05-29T00:41:24;17.40;99.90
23520;DHT22;11936;50.820;4.336;2023-05-29T00:43:50;17.40;99.90
23520;DHT22;11936;50.820;4.336;2023-05-29T00:46:16;17.40;99.90
23520;DHT22;11936;50.820;4.336;2023-05-29T00:48:42;17.30;99.90
23520;DHT22;11936;50.820;4.336;2023-05-29T00:51:09;17.10;99.90
23520;DHT22;11936;50.820;4.336;2023-05-29T00:53:36;17.00;99.90
23520;DHT22;11936;50.820;4.336;2023-05-29T00:56:03;16.90;99.90
23520;DHT22;11936;50.820;4.336;2023-05-29T00:58:30;17.00;99.90
23520;DHT22;11936;50.820;4.336;2023-05-29T01:00:56;17.10;99.90
23520;DHT22;11936;50.820;4.336;2023-05-29T01:03:22;17.00;99.90
23520;DHT22;11936;50.820;4.336;2023-05-29T01:05:48;16.80;99.90
23520;DHT22;11936;50.820;4.336;2023-05-29T01:08:14;16.80;99.90
23520;DHT22;11936;50.820;4.336;2023-05-29T01:10:40;16.70;99.90
23520;DHT22;11936;50.820;4.336;2023-05-29T01:13:23;16.80;99.90
23520;DHT22;11936;50.820;4.336;2023-05-29T01:18:51;16.50;99.90
23520;DHT22;11936;50.820;4.336;2023-05-29T01:21:30;16.40;99.90
23520;DHT22;11936;50.820;4.336;2023-05-29T01:29:00;16.30;99.90
23520;DHT22;11936;50.820;4.336;2023-05-29T01:31:27;16.30;99.90
23520;DHT22;11936;50.820;4.336;2023-05-29T01:33:54;16.20;99.90
23520;DHT22;11936;50.820;4.336;2023-05-29T01:36:21;16.10;99.90
23520;DHT22;11936;50.820;4.336;2023-05-29T01:38:48;16.10;99.90
23520;DHT22;11936;50.820;4.336;2023-05-29T01:41:15;16.20;99.90
23520;DHT22;11936;50.820;4.336;2023-05-29T01:43:43;16.20;99.90
23520;DHT22;11936;50.820;4.336;2023-05-29T01:46:09;16.10;99.90
23520;DHT22;11936;50.820;4.336;2023-05-29T01:48:35;15.90;99.90
23520;DHT22;11936;50.820;4.336;2023-05-29T01:51:01;15.90;99.90
23520;DHT22;11936;50.820;4.336;2023-05-29T01:53:27;15.80;99.90
23520;DHT22;11936;50.820;4.336;2023-05-29T01:55:52;16.00;99.90
23520;DHT22;11936;50.820;4.336;2023-05-29T01:58:20;16.10;99.90
23520;DHT22;11936;50.820;4.336;2023-05-29T02:00:47;16.10;99.90
23520;DHT22;11936;50.820;4.336;2023-05-29T02:03:13;16.00;99.90
23520;DHT22;11936;50.820;4.336;2023-05-29T02:05:38;16.00;99.90
23520;DHT22;11936;50.820;4.336;2023-05-29T02:08:04;15.80;99.90
23520;DHT22;11936;50.820;4.336;2023-05-29T02:10:31;15.80;99.90
23520;DHT22;11936;50.820;4.336;2023-05-29T02:12:57;15.80;99.90
23520;DHT22;11936;50.820;4.336;2023-05-29T02:15:23;15.80;99.90
23520;DHT22;11936;50.820;4.336;2023-05-29T02:17:48;15.70;99.90
23520;DHT22;11936;50.820;4.336;2023-05-29T02:20:15;15.50;99.90
23520;DHT22;11936;50.820;4.336;2023-05-29T02:22:41;15.50;99.90
23520;DHT22;11936;50.820;4.336;2023-05-29T02:25:07;15.40;99.90
23520;DHT22;11936;50.820;4.336;2023-05-29T02:27:33;15.50;99.90
23520;DHT22;11936;50.820;4.336;2023-05-29T02:29:58;15.30;99.90
23520;DHT22;11936;50.820;4.336;2023-05-29T02:32:24;15.40;99.90
23520;DHT22;11936;50.820;4.336;2023-05-29T02:34:53;15.40;99.90
23520;DHT22;11936;50.820;4.336;2023-05-29T02:37:18;15.50;99.90
23520;DHT22;11936;50.820;4.336;2023-05-29T02:39:44;15.60;99.90
23520;DHT22;11936;50.820;4.336;2023-05-29T02:42:10;15.60;99.90
23520;DHT22;11936;50.820;4.336;2023-05-29T02:44:36;15.50;99.90
23520;DHT22;11936;50.820;4.336;2023-05-29T02:47:01;15.30;99.90
23520;DHT22;11936;50.820;4.336;2023-05-29T02:49:27;15.30;99.90
23520;DHT22;11936;50.820;4.336;2023-05-29T02:51:53;15.40;99.90
23520;DHT22;11936;50.820;4.336;2023-05-29T02:54:25;15.30;99.90
23520;DHT22;11936;50.820;4.336;2023-05-29T02:56:51;15.40;99.90
23520;DHT22;11936;50.820;4.336;2023-05-29T02:59:17;15.40;99.90
23520;DHT22;11936;50.820;4.336;2023-05-29T03:01:42;15.40;99.90
23520;DHT22;11936;50.820;4.336;2023-05-29T03:04:10;15.40;99.90
23520;DHT22;11936;50.820;4.336;2023-05-29T03:06:36;15.30;99.90
23520;DHT22;11936;50.820;4.336;2023-05-29T03:09:03;15.30;99.90
23520;DHT22;11936;50.820;4.336;2023-05-29T03:11:30;15.30;99.90
23520;DHT22;11936;50.820;4.336;2023-05-29T03:13:56;15.10;99.90
23520;DHT22;11936;50.820;4.336;2023-05-29T03:16:22;14.90;99.90
23520;DHT22;11936;50.820;4.336;2023-05-29T03:18:47;15.00;99.90
23520;DHT22;11936;50.820;4.336;2023-05-29T03:21:13;15.00;99.90
23520;DHT22;11936;50.820;4.336;2023-05-29T03:23:39;14.90;99.90
23520;DHT22;11936;50.820;4.336;2023-05-29T03:26:04;15.00;99.90
23520;DHT22;11936;50.820;4.336;2023-05-29T03:28:31;14.90;99.90
23520;DHT22;11936;50.820;4.336;2023-05-29T03:30:57;14.90;99.90
23520;DHT22;11936;50.820;4.336;2023-05-29T03:33:22;14.90;99.90
23520;DHT22;11936;50.820;4.336;2023-05-29T03:35:48;14.70;99.90
23520;DHT22;11936;50.820;4.336;2023-05-29T03:38:13;14.60;99.90
23520;DHT22;11936;50.820;4.336;2023-05-29T03:40:39;14.70;99.90
23520;DHT22;11936;50.820;4.336;2023-05-29T03:43:05;14.60;99.90
23520;DHT22;11936;50.820;4.336;2023-05-29T03:45:30;14.50;99.90
23520;DHT22;11936;50.820;4.336;2023-05-29T03:47:56;14.50;99.90
23520;DHT22;11936;50.820;4.336;2023-05-29T03:50:21;14.50;99.90
23520;DHT22;11936;50.820;4.336;2023-05-29T03:52:47;14.40;99.90
23520;DHT22;11936;50.820;4.336;2023-05-29T03:55:12;14.50;99.90
23520;DHT22;11936;50.820;4.336;2023-05-29T03:57:40;14.70;99.90
23520;DHT22;11936;50.820;4.336;2023-05-29T04:00:08;14.60;99.90
23520;DHT22;11936;50.820;4.336;2023-05-29T04:02:36;14.80;99.90
23520;DHT22;11936;50.820;4.336;2023-05-29T04:05:01;14.60;99.90
23520;DHT22;11936;50.820;4.336;2023-05-29T04:07:27;14.50;99.90
23520;DHT22;11936;50.820;4.336;2023-05-29T04:09:52;14.50;99.90
23520;DHT22;11936;50.820;4.336;2023-05-29T04:12:18;14.30;99.90
23520;DHT22;11936;50.820;4.336;2023-05-29T04:14:43;14.40;99.90
23520;DHT22;11936;50.820;4.336;2023-05-29T04:17:09;14.40;99.90
23520;DHT22;11936;50.820;4.336;2023-05-29T04:19:35;14.40;99.90
23520;DHT22;11936;50.820;4.336;2023-05-29T04:22:01;14.30;99.90
23520;DHT22;11936;50.820;4.336;2023-05-29T04:24:26;14.20;99.90
23520;DHT22;11936;50.820;4.336;2023-05-29T04:26:52;14.30;99.90
23520;DHT22;11936;50.820;4.336;2023-05-29T04:29:18;14.50;99.90
23520;DHT22;11936;50.820;4.336;2023-05-29T04:31:44;14.60;99.90
23520;DHT22;11936;50.820;4.336;2023-05-29T04:34:10;14.50;99.90
23520;DHT22;11936;50.820;4.336;2023-05-29T04:36:36;14.50;99.90
23520;DHT22;11936;50.820;4.336;2023-05-29T04:39:07;14.60;99.90
23520;DHT22;11936;50.820;4.336;2023-05-29T04:41:34;14.80;99.90
23520;DHT22;11936;50.820;4.336;2023-05-29T04:44:01;14.70;99.90
23520;DHT22;11936;50.820;4.336;2023-05-29T04:46:27;14.70;99.90
23520;DHT22;11936;50.820;4.336;2023-05-29T04:48:53;14.60;99.90
23520;DHT22;11936;50.820;4.336;2023-05-29T04:51:19;14.60;99.90
23520;DHT22;11936;50.820;4.336;2023-05-29T04:53:45;14.60;99.90
23520;DHT22;11936;50.820;4.336;2023-05-29T04:56:12;14.50;99.90
23520;DHT22;11936;50.820;4.336;2023-05-29T04:58:38;14.30;99.90
23520;DHT22;11936;50.820;4.336;2023-05-29T05:01:04;14.30;99.90
23520;DHT22;11936;50.820;4.336;2023-05-29T05:03:30;14.40;99.90
23520;DHT22;11936;50.820;4.336;2023-05-29T05:06:00;14.30;99.90
23520;DHT22;11936;50.820;4.336;2023-05-29T05:08:28;14.20;99.90
23520;DHT22;11936;50.820;4.336;2023-05-29T05:10:54;14.20;99.90
23520;DHT22;11936;50.820;4.336;2023-05-29T05:13:19;14.30;99.90
23520;DHT22;11936;50.820;4.336;2023-05-29T05:15:45;14.30;99.90
23520;DHT22;11936;50.820;4.336;2023-05-29T05:18:10;14.50;99.90
23520;DHT22;11936;50.820;4.336;2023-05-29T05:20:36;14.50;99.90
23520;DHT22;11936;50.820;4.336;2023-05-29T05:23:02;14.50;99.90
23520;DHT22;11936;50.820;4.336;2023-05-29T05:25:27;14.50;99.90
23520;DHT22;11936;50.820;4.336;2023-05-29T05:27:53;14.50;99.90
23520;DHT22;11936;50.820;4.336;2023-05-29T05:30:19;14.70;99.90
23520;DHT22;11936;50.820;4.336;2023-05-29T05:32:44;14.70;99.90
23520;DHT22;11936;50.820;4.336;2023-05-29T05:35:10;14.60;99.90
23520;DHT22;11936;50.820;4.336;2023-05-29T05:37:37;14.60;99.90
23520;DHT22;11936;50.820;4.336;2023-05-29T05:40:03;14.70;99.90
23520;DHT22;11936;50.820;4.336;2023-05-29T05:42:31;14.70;99.90
23520;DHT22;11936;50.820;4.336;2023-05-29T05:44:57;14.70;99.90
23520;DHT22;11936;50.820;4.336;2023-05-29T05:47:23;14.40;99.90
23520;DHT22;11936;50.820;4.336;2023-05-29T05:49:48;14.40;99.90
23520;DHT22;11936;50.820;4.336;2023-05-29T05:52:17;14.40;99.90
23520;DHT22;11936;50.820;4.336;2023-05-29T05:54:42;14.50;99.90
23520;DHT22;11936;50.820;4.336;2023-05-29T05:57:08;14.60;99.90
23520;DHT22;11936;50.820;4.336;2023-05-29T05:59:34;14.60;99.90
23520;DHT22;11936;50.820;4.336;2023-05-29T06:01:59;14.60;99.90
23520;DHT22;11936;50.820;4.336;2023-05-29T06:04:25;14.60;99.90
23520;DHT22;11936;50.820;4.336;2023-05-29T06:06:51;14.60;99.90
23520;DHT22;11936;50.820;4.336;2023-05-29T06:09:17;14.60;99.90
23520;DHT22;11936;50.820;4.336;2023-05-29T06:11:42;14.70;99.90
23520;DHT22;11936;50.820;4.336;2023-05-29T06:14:08;14.70;99.90
23520;DHT22;11936;50.820;4.336;2023-05-29T06:16:34;14.70;99.90
23520;DHT22;11936;50.820;4.336;2023-05-29T06:19:00;14.80;99.90
23520;DHT22;11936;50.820;4.336;2023-05-29T06:21:26;14.90;99.90
23520;DHT22;11936;50.820;4.336;2023-05-29T06:23:52;14.80;99.90
23520;DHT22;11936;50.820;4.336;2023-05-29T06:26:17;14.70;99.90
23520;DHT22;11936;50.820;4.336;2023-05-29T06:28:43;14.60;99.90
23520;DHT22;11936;50.820;4.336;2023-05-29T06:31:08;14.70;99.90
23520;DHT22;11936;50.820;4.336;2023-05-29T06:33:35;14.70;99.90
23520;DHT22;11936;50.820;4.336;2023-05-29T06:36:01;14.80;99.90
23520;DHT22;11936;50.820;4.336;2023-05-29T06:38:27;14.80;99.90
23520;DHT22;11936;50.820;4.336;2023-05-29T06:40:52;15.00;99.90
23520;DHT22;11936;50.820;4.336;2023-05-29T06:43:18;14.80;99.90
23520;DHT22;11936;50.820;4.336;2023-05-29T06:45:43;14.80;99.90
23520;DHT22;11936;50.820;4.336;2023-05-29T06:48:09;14.90;99.90
23520;DHT22;11936;50.820;4.336;2023-05-29T06:50:35;15.10;99.90
23520;DHT22;11936;50.820;4.336;2023-05-29T06:53:01;15.20;99.90
23520;DHT22;11936;50.820;4.336;2023-05-29T06:55:26;15.30;99.90
23520;DHT22;11936;50.820;4.336;2023-05-29T06:57:52;15.30;99.90
23520;DHT22;11936;50.820;4.336;2023-05-29T07:00:18;15.20;99.90
23520;DHT22;11936;50.820;4.336;2023-05-29T07:02:44;15.20;99.90
23520;DHT22;11936;50.820;4.336;2023-05-29T07:05:09;15.20;99.90
23520;DHT22;11936;50.820;4.336;2023-05-29T07:07:35;15.00;99.90
23520;DHT22;11936;50.820;4.336;2023-05-29T07:10:00;14.90;99.90
23520;DHT22;11936;50.820;4.336;2023-05-29T07:12:26;15.00;99.90
23520;DHT22;11936;50.820;4.336;2023-05-29T07:14:52;15.00;99.90
23520;DHT22;11936;50.820;4.336;2023-05-29T07:17:18;15.10;99.90
23520;DHT22;11936;50.820;4.336;2023-05-29T07:19:43;15.20;99.90
23520;DHT22;11936;50.820;4.336;2023-05-29T07:22:09;15.20;99.90
23520;DHT22;11936;50.820;4.336;2023-05-29T07:24:35;15.40;99.90
23520;DHT22;11936;50.820;4.336;2023-05-29T07:27:01;15.30;99.90
23520;DHT22;11936;50.820;4.336;2023-05-29T07:29:27;15.40;99.90
23520;DHT22;11936;50.820;4.336;2023-05-29T07:31:52;15.50;99.90
23520;DHT22;11936;50.820;4.336;2023-05-29T07:34:18;15.50;99.90
23520;DHT22;11936;50.820;4.336;2023-05-29T07:37:10;15.50;99.90
23520;DHT22;11936;50.820;4.336;2023-05-29T07:39:36;15.50;99.90
23520;DHT22;11936;50.820;4.336;2023-05-29T07:42:02;15.40;99.90
23520;DHT22;11936;50.820;4.336;2023-05-29T07:44:28;15.30;99.90
23520;DHT22;11936;50.820;4.336;2023-05-29T07:46:54;15.30;99.90
23520;DHT22;11936;50.820;4.336;2023-05-29T07:49:20;15.40;99.90
23520;DHT22;11936;50.820;4.336;2023-05-29T07:51:46;15.60;99.90
23520;DHT22;11936;50.820;4.336;2023-05-29T07:54:12;15.60;99.90
23520;DHT22;11936;50.820;4.336;2023-05-29T07:56:38;15.60;99.90
23520;DHT22;11936;50.820;4.336;2023-05-29T07:59:04;15.50;99.90
23520;DHT22;11936;50.820;4.336;2023-05-29T08:01:30;15.60;99.90
23520;DHT22;11936;50.820;4.336;2023-05-29T08:03:56;15.70;99.90
23520;DHT22;11936;50.820;4.336;2023-05-29T08:06:22;15.80;99.90
23520;DHT22;11936;50.820;4.336;2023-05-29T08:08:47;15.80;99.90
23520;DHT22;11936;50.820;4.336;2023-05-29T08:11:13;16.00;99.90
23520;DHT22;11936;50.820;4.336;2023-05-29T08:13:39;16.00;99.90
23520;DHT22;11936;50.820;4.336;2023-05-29T08:23:52;16.10;99.90
23520;DHT22;11936;50.820;4.336;2023-05-29T08:26:18;16.20;99.90
23520;DHT22;11936;50.820;4.336;2023-05-29T08:28:43;16.20;99.90
23520;DHT22;11936;50.820;4.336;2023-05-29T08:31:09;16.20;99.90
23520;DHT22;11936;50.820;4.336;2023-05-29T08:33:35;16.30;99.90
23520;DHT22;11936;50.820;4.336;2023-05-29T08:36:02;16.30;99.90
23520;DHT22;11936;50.820;4.336;2023-05-29T08:38:27;16.40;99.90
23520;DHT22;11936;50.820;4.336;2023-05-29T08:40:54;16.30;99.90
23520;DHT22;11936;50.820;4.336;2023-05-29T08:43:22;16.40;99.90
23520;DHT22;11936;50.820;4.336;2023-05-29T08:45:55;16.30;99.90
23520;DHT22;11936;50.820;4.336;2023-05-29T08:48:24;16.50;99.90
23520;DHT22;11936;50.820;4.336;2023-05-29T08:50:55;16.60;99.90
23520;DHT22;11936;50.820;4.336;2023-05-29T08:53:22;16.60;99.90
23520;DHT22;11936;50.820;4.336;2023-05-29T08:55:48;16.60;99.90
23520;DHT22;11936;50.820;4.336;2023-05-29T08:58:18;16.60;99.90
23520;DHT22;11936;50.820;4.336;2023-05-29T09:00:48;16.70;99.90
23520;DHT22;11936;50.820;4.336;2023-05-29T09:03:14;16.70;99.90
23520;DHT22;11936;50.820;4.336;2023-05-29T09:05:40;16.80;99.90
23520;DHT22;11936;50.820;4.336;2023-05-29T09:08:10;17.00;99.90
23520;DHT22;11936;50.820;4.336;2023-05-29T09:10:39;17.00;99.90
23520;DHT22;11936;50.820;4.336;2023-05-29T09:13:05;17.00;99.90
23520;DHT22;11936;50.820;4.336;2023-05-29T09:15:31;17.20;99.90
23520;DHT22;11936;50.820;4.336;2023-05-29T09:17:57;17.10;99.70
23520;DHT22;11936;50.820;4.336;2023-05-29T09:20:24;17.10;99.90
23520;DHT22;11936;50.820;4.336;2023-05-29T09:22:56;17.00;99.90
23520;DHT22;11936;50.820;4.336;2023-05-29T09:25:23;17.00;99.40
23520;DHT22;11936;50.820;4.336;2023-05-29T09:28:04;17.00;99.70
23520;DHT22;11936;50.820;4.336;2023-05-29T09:30:51;17.10;99.90
23520;DHT22;11936;50.820;4.336;2023-05-29T09:33:17;17.30;99.50
23520;DHT22;11936;50.820;4.336;2023-05-29T09:35:43;17.30;99.20
23520;DHT22;11936;50.820;4.336;2023-05-29T09:38:11;17.40;99.30
23520;DHT22;11936;50.820;4.336;2023-05-29T09:40:38;17.30;99.20
23520;DHT22;11936;50.820;4.336;2023-05-29T09:45:41;17.20;99.30
23520;DHT22;11936;50.820;4.336;2023-05-29T09:48:08;17.40;99.00
23520;DHT22;11936;50.820;4.336;2023-05-29T09:50:37;17.30;99.20
23520;DHT22;11936;50.820;4.336;2023-05-29T09:53:28;17.40;99.40
23520;DHT22;11936;50.820;4.336;2023-05-29T09:55:55;17.50;99.20
23520;DHT22;11936;50.820;4.336;2023-05-29T09:58:24;17.40;99.10
23520;DHT22;11936;50.820;4.336;2023-05-29T10:00:49;17.50;99.00
23520;DHT22;11936;50.820;4.336;2023-05-29T10:03:17;17.60;99.00
23520;DHT22;11936;50.820;4.336;2023-05-29T10:05:50;17.50;98.60
23520;DHT22;11936;50.820;4.336;2023-05-29T10:08:18;17.60;98.30
23520;DHT22;11936;50.820;4.336;2023-05-29T10:11:07;17.70;98.70
23520;DHT22;11936;50.820;4.336;2023-05-29T10:13:38;17.80;98.10
23520;DHT22;11936;50.820;4.336;2023-05-29T10:16:10;17.70;98.10
23520;DHT22;11936;50.820;4.336;2023-05-29T10:18:38;17.80;97.90
23520;DHT22;11936;50.820;4.336;2023-05-29T10:21:08;17.70;98.00
23520;DHT22;11936;50.820;4.336;2023-05-29T10:23:37;17.80;97.90
23520;DHT22;11936;50.820;4.336;2023-05-29T10:26:15;17.80;97.80
23520;DHT22;11936;50.820;4.336;2023-05-29T10:29:07;17.80;97.80
23520;DHT22;11936;50.820;4.336;2023-05-29T10:31:46;17.80;98.10
23520;DHT22;11936;50.820;4.336;2023-05-29T10:39:46;18.10;97.70
23520;DHT22;11936;50.820;4.336;2023-05-29T10:45:06;18.20;97.90
23520;DHT22;11936;50.820;4.336;2023-05-29T10:47:32;18.20;97.80
23520;DHT22;11936;50.820;4.336;2023-05-29T10:50:02;18.20;97.60
23520;DHT22;11936;50.820;4.336;2023-05-29T10:52:31;18.30;97.40
23520;DHT22;11936;50.820;4.336;2023-05-29T10:54:57;18.40;97.50
23520;DHT22;11936;50.820;4.336;2023-05-29T10:57:24;18.40;96.80
23520;DHT22;11936;50.820;4.336;2023-05-29T11:00:06;18.40;97.10
23520;DHT22;11936;50.820;4.336;2023-05-29T11:02:36;18.50;97.10
23520;DHT22;11936;50.820;4.336;2023-05-29T11:05:06;18.50;97.00
23520;DHT22;11936;50.820;4.336;2023-05-29T11:07:55;18.50;95.60
23520;DHT22;11936;50.820;4.336;2023-05-29T11:13:36;18.70;96.30
23520;DHT22;11936;50.820;4.336;2023-05-29T11:18:57;18.60;96.20
23520;DHT22;11936;50.820;4.336;2023-05-29T11:24:00;18.70;96.50
23520;DHT22;11936;50.820;4.336;2023-05-29T11:26:29;18.90;96.00
23520;DHT22;11936;50.820;4.336;2023-05-29T11:29:08;18.90;96.10
23520;DHT22;11936;50.820;4.336;2023-05-29T11:31:37;19.00;96.20
23520;DHT22;11936;50.820;4.336;2023-05-29T11:34:04;19.10;96.10
23520;DHT22;11936;50.820;4.336;2023-05-29T11:36:32;19.20;95.60
23520;DHT22;11936;50.820;4.336;2023-05-29T11:38:58;19.20;95.50
23520;DHT22;11936;50.820;4.336;2023-05-29T11:41:25;19.20;95.80
23520;DHT22;11936;50.820;4.336;2023-05-29T11:44:02;19.20;95.60
23520;DHT22;11936;50.820;4.336;2023-05-29T11:46:28;19.20;95.70
23520;DHT22;11936;50.820;4.336;2023-05-29T11:48:56;19.20;95.00
23520;DHT22;11936;50.820;4.336;2023-05-29T11:51:22;19.20;95.60
23520;DHT22;11936;50.820;4.336;2023-05-29T11:53:48;19.20;95.20
23520;DHT22;11936;50.820;4.336;2023-05-29T11:56:14;19.30;95.00
23520;DHT22;11936;50.820;4.336;2023-05-29T11:58:40;19.40;94.40
23520;DHT22;11936;50.820;4.336;2023-05-29T12:01:07;19.30;95.40
23520;DHT22;11936;50.820;4.336;2023-05-29T12:03:40;19.40;95.20
23520;DHT22;11936;50.820;4.336;2023-05-29T12:06:06;19.60;94.90
23520;DHT22;11936;50.820;4.336;2023-05-29T12:08:32;19.60;94.60
23520;DHT22;11936;50.820;4.336;2023-05-29T12:10:58;19.70;95.40
23520;DHT22;11936;50.820;4.336;2023-05-29T12:13:25;19.70;94.90
23520;DHT22;11936;50.820;4.336;2023-05-29T12:15:59;19.80;94.80
23520;DHT22;11936;50.820;4.336;2023-05-29T12:18:26;19.90;94.30
23520;DHT22;11936;50.820;4.336;2023-05-29T12:21:01;20.00;94.50
23520;DHT22;11936;50.820;4.336;2023-05-29T12:23:29;20.00;94.30
23520;DHT22;11936;50.820;4.336;2023-05-29T12:25:56;20.00;93.90
23520;DHT22;11936;50.820;4.336;2023-05-29T12:28:22;19.80;94.00
23520;DHT22;11936;50.820;4.336;2023-05-29T12:30:48;19.90;94.20
23520;DHT22;11936;50.820;4.336;2023-05-29T12:33:31;19.90;94.00
23520;DHT22;11936;50.820;4.336;2023-05-29T12:36:05;19.90;94.10
23520;DHT22;11936;50.820;4.336;2023-05-29T12:38:32;20.00;94.40
23520;DHT22;11936;50.820;4.336;2023-05-29T12:40:58;20.10;94.00
23520;DHT22;11936;50.820;4.336;2023-05-29T12:43:23;20.10;93.60
23520;DHT22;11936;50.820;4.336;2023-05-29T12:45:56;20.20;93.90
23520;DHT22;11936;50.820;4.336;2023-05-29T12:48:26;20.20;94.00
23520;DHT22;11936;50.820;4.336;2023-05-29T12:50:52;20.30;93.60
23520;DHT22;11936;50.820;4.336;2023-05-29T12:53:18;20.30;93.30
23520;DHT22;11936;50.820;4.336;2023-05-29T12:55:44;20.30;93.20
23520;DHT22;11936;50.820;4.336;2023-05-29T12:58:13;20.30;92.80
23520;DHT22;11936;50.820;4.336;2023-05-29T13:00:40;20.30;93.20
23520;DHT22;11936;50.820;4.336;2023-05-29T13:03:07;20.40;92.50
23520;DHT22;11936;50.820;4.336;2023-05-29T13:05:33;20.40;92.60
23520;DHT22;11936;50.820;4.336;2023-05-29T13:07:59;20.50;93.10
23520;DHT22;11936;50.820;4.336;2023-05-29T13:10:26;20.60;92.70
23520;DHT22;11936;50.820;4.336;2023-05-29T13:12:53;20.70;92.80
23520;DHT22;11936;50.820;4.336;2023-05-29T13:15:24;20.70;92.40
23520;DHT22;11936;50.820;4.336;2023-05-29T13:17:52;20.70;92.90
23520;DHT22;11936;50.820;4.336;2023-05-29T13:20:19;20.70;93.10
23520;DHT22;11936;50.820;4.336;2023-05-29T13:22:47;20.80;92.50
23520;DHT22;11936;50.820;4.336;2023-05-29T13:25:14;20.90;93.10
23520;DHT22;11936;50.820;4.336;2023-05-29T13:28:09;20.70;92.90
23520;DHT22;11936;50.820;4.336;2023-05-29T13:30:41;20.90;92.30
23520;DHT22;11936;50.820;4.336;2023-05-29T13:33:14;20.90;92.40
23520;DHT22;11936;50.820;4.336;2023-05-29T13:35:53;20.90;92.50
23520;DHT22;11936;50.820;4.336;2023-05-29T13:38:59;20.90;92.30
23520;DHT22;11936;50.820;4.336;2023-05-29T13:41:25;21.10;92.20
23520;DHT22;11936;50.820;4.336;2023-05-29T13:44:15;21.20;92.30
23520;DHT22;11936;50.820;4.336;2023-05-29T13:47:07;21.20;91.90
23520;DHT22;11936;50.820;4.336;2023-05-29T13:49:42;21.20;92.20
23520;DHT22;11936;50.820;4.336;2023-05-29T13:52:12;21.20;91.30
23520;DHT22;11936;50.820;4.336;2023-05-29T13:55:36;21.30;91.40
23520;DHT22;11936;50.820;4.336;2023-05-29T13:58:28;21.40;91.90
23520;DHT22;11936;50.820;4.336;2023-05-29T14:01:19;21.60;91.80
23520;DHT22;11936;50.820;4.336;2023-05-29T14:03:45;21.70;90.60
23520;DHT22;11936;50.820;4.336;2023-05-29T14:06:11;21.70;91.30
23520;DHT22;11936;50.820;4.336;2023-05-29T14:08:37;21.80;91.20
23520;DHT22;11936;50.820;4.336;2023-05-29T14:11:02;21.80;91.70
23520;DHT22;11936;50.820;4.336;2023-05-29T14:13:28;21.80;90.90
23520;DHT22;11936;50.820;4.336;2023-05-29T14:15:54;21.90;91.20
23520;DHT22;11936;50.820;4.336;2023-05-29T14:18:27;21.70;91.10
23520;DHT22;11936;50.820;4.336;2023-05-29T14:20:55;21.70;91.50
23520;DHT22;11936;50.820;4.336;2023-05-29T14:23:21;21.70;90.90
23520;DHT22;11936;50.820;4.336;2023-05-29T14:25:47;21.80;91.40
23520;DHT22;11936;50.820;4.336;2023-05-29T14:28:12;21.90;90.30
23520;DHT22;11936;50.820;4.336;2023-05-29T14:30:38;21.80;90.00
23520;DHT22;11936;50.820;4.336;2023-05-29T14:33:04;22.00;90.40
23520;DHT22;11936;50.820;4.336;2023-05-29T14:35:30;22.00;90.30
23520;DHT22;11936;50.820;4.336;2023-05-29T14:37:57;22.00;89.10
23520;DHT22;11936;50.820;4.336;2023-05-29T14:40:22;22.00;90.00
23520;DHT22;11936;50.820;4.336;2023-05-29T14:42:48;22.20;89.70
23520;DHT22;11936;50.820;4.336;2023-05-29T14:45:16;22.10;89.40
23520;DHT22;11936;50.820;4.336;2023-05-29T14:47:42;22.30;89.70
23520;DHT22;11936;50.820;4.336;2023-05-29T14:50:09;22.20;89.80
23520;DHT22;11936;50.820;4.336;2023-05-29T14:52:34;22.00;89.20
23520;DHT22;11936;50.820;4.336;2023-05-29T14:55:02;22.10;90.00
23520;DHT22;11936;50.820;4.336;2023-05-29T14:57:28;22.00;88.20
23520;DHT22;11936;50.820;4.336;2023-05-29T14:59:58;22.00;88.60
23520;DHT22;11936;50.820;4.336;2023-05-29T15:02:23;22.00;90.30
23520;DHT22;11936;50.820;4.336;2023-05-29T15:04:51;22.10;88.90
23520;DHT22;11936;50.820;4.336;2023-05-29T15:07:17;22.10;89.90
23520;DHT22;11936;50.820;4.336;2023-05-29T15:09:43;22.10;89.20
23520;DHT22;11936;50.820;4.336;2023-05-29T15:12:09;22.20;88.30
23520;DHT22;11936;50.820;4.336;2023-05-29T15:14:35;22.20;89.30
23520;DHT22;11936;50.820;4.336;2023-05-29T15:17:01;22.10;88.50
23520;DHT22;11936;50.820;4.336;2023-05-29T15:19:28;22.10;88.00
23520;DHT22;11936;50.820;4.336;2023-05-29T15:21:54;22.00;89.10
23520;DHT22;11936;50.820;4.336;2023-05-29T15:24:19;21.90;87.60
23520;DHT22;11936;50.820;4.336;2023-05-29T15:26:45;21.80;89.20
23520;DHT22;11936;50.820;4.336;2023-05-29T15:29:10;21.90;89.60
23520;DHT22;11936;50.820;4.336;2023-05-29T15:31:36;22.00;89.00
23520;DHT22;11936;50.820;4.336;2023-05-29T15:34:02;21.90;86.60
23520;DHT22;11936;50.820;4.336;2023-05-29T15:36:28;21.80;88.40
23520;DHT22;11936;50.820;4.336;2023-05-29T15:38:54;22.00;88.20
23520;DHT22;11936;50.820;4.336;2023-05-29T15:41:20;21.90;88.90
23520;DHT22;11936;50.820;4.336;2023-05-29T15:43:46;22.00;88.80
23520;DHT22;11936;50.820;4.336;2023-05-29T15:46:11;21.90;87.50
23520;DHT22;11936;50.820;4.336;2023-05-29T15:48:37;21.80;87.40
23520;DHT22;11936;50.820;4.336;2023-05-29T15:51:03;21.70;88.50
23520;DHT22;11936;50.820;4.336;2023-05-29T15:53:28;21.80;86.50
23520;DHT22;11936;50.820;4.336;2023-05-29T15:55:54;21.60;86.40
23520;DHT22;11936;50.820;4.336;2023-05-29T15:58:20;21.60;87.10
23520;DHT22;11936;50.820;4.336;2023-05-29T16:00:47;21.50;87.40
23520;DHT22;11936;50.820;4.336;2023-05-29T16:03:14;21.50;86.70
23520;DHT22;11936;50.820;4.336;2023-05-29T16:05:39;21.50;85.90
23520;DHT22;11936;50.820;4.336;2023-05-29T16:08:05;21.30;85.30